sensor_id;sensor_type;location;lat;lon;timestamp;pressure;altitude;pressure_sealevel;temperature;humidity
49397;BME280;35615;41.410;2.194;2023-05-10T00:01:45;101745.97;;;23.21;52.31
49397;BME280;35615;41.410;2.194;2023-05-10T00:04:12;101737.19;;;23.22;52.28
49397;BME280;35615;41.410;2.194;2023-05-10T00:06:39;101731.03;;;23.12;52.78
49397;BME280;35615;41.410;2.194;2023-05-10T00:09:07;101731.06;;;23.17;52.62
49397;BME280;35615;41.410;2.194;2023-05-10T00:11:39;101729.28;;;23.17;52.64
49397;BME280;35615;41.410;2.194;2023-05-10T00:14:06;101724.91;;;23.21;52.58
49397;BME280;35615;41.410;2.194;2023-05-10T00:16:35;101724.00;;;23.22;52.84
49397;BME280;35615;41.410;2.194;2023-05-10T00:19:02;101720.47;;;23.09;53.10
49397;BME280;35615;41.410;2.194;2023-05-10T00:21:30;101714.34;;;23.24;52.53
49397;BME280;35615;41.410;2.194;2023-05-10T00:23:57;101710.81;;;23.25;52.70
49397;BME280;35615;41.410;2.194;2023-05-10T00:26:24;101714.38;;;23.29;52.45
49397;BME280;35615;41.410;2.194;2023-05-10T00:28:54;101714.34;;;23.27;52.56
49397;BME280;35615;41.410;2.194;2023-05-10T00:31:21;101714.34;;;23.26;52.68
49397;BME280;35615;41.410;2.194;2023-05-10T00:33:49;101720.50;;;23.25;52.65
49397;BME280;35615;41.410;2.194;2023-05-10T00:36:16;101709.06;;;23.19;52.92
49397;BME280;35615;41.410;2.194;2023-05-10T00:38:43;101698.53;;;23.27;52.54
49397;BME280;35615;41.410;2.194;2023-05-10T00:41:14;101697.66;;;23.22;52.76
49397;BME280;35615;41.410;2.194;2023-05-10T00:43:49;101701.16;;;23.18;52.69
49397;BME280;35615;41.410;2.194;2023-05-10T00:46:19;101706.44;;;23.18;52.30
49397;BME280;35615;41.410;2.194;2023-05-10T00:48:48;101695.00;;;23.11;52.45
49397;BME280;35615;41.410;2.194;2023-05-10T00:51:16;101697.63;;;23.10;52.41
49397;BME280;35615;41.410;2.194;2023-05-10T00:53:46;101686.19;;;23.05;52.31
49397;BME280;35615;41.410;2.194;2023-05-10T00:56:13;101690.59;;;23.07;52.45
49397;BME280;35615;41.410;2.194;2023-05-10T00:58:42;101687.09;;;23.10;52.46
49397;BME280;35615;41.410;2.194;2023-05-10T01:01:10;101688.84;;;23.14;52.53
49397;BME280;35615;41.410;2.194;2023-05-10T01:03:37;101681.84;;;23.17;52.48
49397;BME280;35615;41.410;2.194;2023-05-10T01:06:07;101677.41;;;23.16;52.54
49397;BME280;35615;41.410;2.194;2023-05-10T01:08:36;101675.66;;;23.12;52.80
49397;BME280;35615;41.410;2.194;2023-05-10T01:11:06;101660.72;;;23.11;52.66
49397;BME280;35615;41.410;2.194;2023-05-10T01:13:36;101667.75;;;23.11;52.90
49397;BME280;35615;41.410;2.194;2023-05-10T01:16:05;101668.63;;;23.11;52.85
49397;BME280;35615;41.410;2.194;2023-05-10T01:18:38;101666.88;;;23.09;52.86
49397;BME280;35615;41.410;2.194;2023-05-10T01:26:16;101654.56;;;23.05;52.94
49397;BME280;35615;41.410;2.194;2023-05-10T01:35:25;101653.66;;;22.94;53.35
49397;BME280;35615;41.410;2.194;2023-05-10T01:38:07;101658.09;;;22.96;53.11
49397;BME280;35615;41.410;2.194;2023-05-10T01:43:28;101651.91;;;22.88;53.49
49397;BME280;35615;41.410;2.194;2023-05-10T01:45:59;101651.91;;;22.85;53.45
49397;BME280;35615;41.410;2.194;2023-05-10T01:48:30;101650.16;;;22.84;53.34
49397;BME280;35615;41.410;2.194;2023-05-10T01:50:59;101644.88;;;22.88;53.41
49397;BME280;35615;41.410;2.194;2023-05-10T01:53:27;101644.88;;;22.88;53.08
49397;BME280;35615;41.410;2.194;2023-05-10T01:55:56;101648.31;;;22.66;52.86
49397;BME280;35615;41.410;2.194;2023-05-10T01:58:28;101644.81;;;22.72;52.72
49397;BME280;35615;41.410;2.194;2023-05-10T02:00:58;101650.94;;;22.65;53.35
49397;BME280;35615;41.410;2.194;2023-05-10T02:03:31;101650.97;;;22.75;52.94
49397;BME280;35615;41.410;2.194;2023-05-10T02:05:59;101655.38;;;22.75;52.63
49397;BME280;35615;41.410;2.194;2023-05-10T02:08:27;101654.56;;;22.88;52.56
49397;BME280;35615;41.410;2.194;2023-05-10T02:10:56;101650.97;;;22.83;52.52
49397;BME280;35615;41.410;2.194;2023-05-10T02:13:27;101663.34;;;22.85;52.47
49397;BME280;35615;41.410;2.194;2023-05-10T02:15:56;101660.69;;;22.85;52.56
49397;BME280;35615;41.410;2.194;2023-05-10T02:18:27;101656.31;;;22.89;52.26
49397;BME280;35615;41.410;2.194;2023-05-10T02:20:55;101651.03;;;22.90;52.41
49397;BME280;35615;41.410;2.194;2023-05-10T02:23:23;101648.41;;;22.84;51.99
49397;BME280;35615;41.410;2.194;2023-05-10T02:25:58;101644.91;;;22.84;51.91
49397;BME280;35615;41.410;2.194;2023-05-10T02:28:28;101647.47;;;22.76;51.90
49397;BME280;35615;41.410;2.194;2023-05-10T02:30:58;101645.69;;;22.72;52.00
49397;BME280;35615;41.410;2.194;2023-05-10T02:33:26;101648.31;;;22.68;51.96
49397;BME280;35615;41.410;2.194;2023-05-10T02:35:58;101638.66;;;22.70;52.03
49397;BME280;35615;41.410;2.194;2023-05-10T02:38:30;101644.81;;;22.66;51.81
49397;BME280;35615;41.410;2.194;2023-05-10T02:40:59;101642.13;;;22.56;52.32
49397;BME280;35615;41.410;2.194;2023-05-10T02:43:32;101642.09;;;22.49;52.59
49397;BME280;35615;41.410;2.194;2023-05-10T02:46:00;101644.81;;;22.66;52.32
49397;BME280;35615;41.410;2.194;2023-05-10T02:48:28;101651.75;;;22.42;53.35
49397;BME280;35615;41.410;2.194;2023-05-10T02:51:00;101645.56;;;22.32;53.90
49397;BME280;35615;41.410;2.194;2023-05-10T02:53:31;101639.53;;;22.63;53.00
49397;BME280;35615;41.410;2.194;2023-05-10T02:56:05;101636.00;;;22.60;53.27
49397;BME280;35615;41.410;2.194;2023-05-10T02:58:34;101641.28;;;22.71;52.63
49397;BME280;35615;41.410;2.194;2023-05-10T03:01:03;101638.66;;;22.64;52.44
49397;BME280;35615;41.410;2.194;2023-05-10T03:03:34;101641.31;;;22.80;52.12
49397;BME280;35615;41.410;2.194;2023-05-10T03:06:01;101640.44;;;22.74;52.13
49397;BME280;35615;41.410;2.194;2023-05-10T03:08:30;101639.53;;;22.72;52.52
49397;BME280;35615;41.410;2.194;2023-05-10T03:16:45;101627.25;;;22.72;52.56
49397;BME280;35615;41.410;2.194;2023-05-10T03:19:24;101628.97;;;22.59;53.27
49397;BME280;35615;41.410;2.194;2023-05-10T03:21:54;101629.88;;;22.69;53.06
49397;BME280;35615;41.410;2.194;2023-05-10T03:24:27;101628.03;;;22.28;54.22
49397;BME280;35615;41.410;2.194;2023-05-10T03:27:00;101621.06;;;22.52;53.64
49397;BME280;35615;41.410;2.194;2023-05-10T03:29:33;101623.72;;;22.50;53.75
49397;BME280;35615;41.410;2.194;2023-05-10T03:32:03;101622.81;;;22.56;53.59
49397;BME280;35615;41.410;2.194;2023-05-10T03:34:34;101616.72;;;22.61;52.90
49397;BME280;35615;41.410;2.194;2023-05-10T03:37:08;101616.69;;;22.60;52.99
49397;BME280;35615;41.410;2.194;2023-05-10T03:39:36;101621.97;;;22.61;52.00
49397;BME280;35615;41.410;2.194;2023-05-10T03:42:05;101622.75;;;22.38;50.76
49397;BME280;35615;41.410;2.194;2023-05-10T03:44:36;101618.41;;;22.43;50.25
49397;BME280;35615;41.410;2.194;2023-05-10T03:47:04;101618.41;;;22.43;49.19
49397;BME280;35615;41.410;2.194;2023-05-10T03:49:31;101621.91;;;22.42;48.56
49397;BME280;35615;41.410;2.194;2023-05-10T03:51:59;101622.66;;;22.16;47.67
49397;BME280;35615;41.410;2.194;2023-05-10T03:54:26;101620.09;;;22.24;47.78
49397;BME280;35615;41.410;2.194;2023-05-10T03:56:54;101621.84;;;22.20;47.70
49397;BME280;35615;41.410;2.194;2023-05-10T03:59:23;101623.59;;;22.26;47.46
49397;BME280;35615;41.410;2.194;2023-05-10T04:01:51;101629.72;;;22.20;46.71
49397;BME280;35615;41.410;2.194;2023-05-10T04:04:18;101625.34;;;22.19;46.74
49397;BME280;35615;41.410;2.194;2023-05-10T04:06:49;101626.19;;;22.12;46.51
49397;BME280;35615;41.410;2.194;2023-05-10T04:09:16;101618.19;;;22.00;46.12
49397;BME280;35615;41.410;2.194;2023-05-10T04:11:43;101620.03;;;22.10;46.19
49397;BME280;35615;41.410;2.194;2023-05-10T04:14:10;101622.66;;;22.12;46.28
49397;BME280;35615;41.410;2.194;2023-05-10T04:16:38;101615.56;;;21.95;46.01
49397;BME280;35615;41.410;2.194;2023-05-10T04:19:08;101612.16;;;22.16;45.69
49397;BME280;35615;41.410;2.194;2023-05-10T04:21:36;101618.28;;;22.09;45.46
49397;BME280;35615;41.410;2.194;2023-05-10T04:24:08;101608.63;;;22.14;45.37
49397;BME280;35615;41.410;2.194;2023-05-10T04:26:35;101616.53;;;22.10;45.24
49397;BME280;35615;41.410;2.194;2023-05-10T04:29:05;101605.91;;;22.00;44.87
49397;BME280;35615;41.410;2.194;2023-05-10T04:31:32;101606.00;;;22.10;44.75
49397;BME280;35615;41.410;2.194;2023-05-10T04:33:59;101598.84;;;21.93;44.60
49397;BME280;35615;41.410;2.194;2023-05-10T04:36:29;101608.53;;;22.00;44.76
49397;BME280;35615;41.410;2.194;2023-05-10T04:38:57;101610.28;;;21.95;44.30
49397;BME280;35615;41.410;2.194;2023-05-10T04:41:24;101605.03;;;21.97;44.96
49397;BME280;35615;41.410;2.194;2023-05-10T04:43:56;101611.13;;;21.93;44.83
49397;BME280;35615;41.410;2.194;2023-05-10T04:46:23;101606.63;;;21.72;45.37
49397;BME280;35615;41.410;2.194;2023-05-10T04:48:50;101606.63;;;21.72;45.32
49397;BME280;35615;41.410;2.194;2023-05-10T04:51:17;101604.03;;;21.78;45.34
49397;BME280;35615;41.410;2.194;2023-05-10T04:53:45;101603.97;;;21.64;45.44
49397;BME280;35615;41.410;2.194;2023-05-10T04:56:31;101605.72;;;21.64;45.66
49397;BME280;35615;41.410;2.194;2023-05-10T04:58:58;101605.50;;;21.33;45.66
49397;BME280;35615;41.410;2.194;2023-05-10T05:01:28;101605.59;;;21.50;45.06
49397;BME280;35615;41.410;2.194;2023-05-10T05:03:55;101602.16;;;21.54;44.40
49397;BME280;35615;41.410;2.194;2023-05-10T05:06:23;101603.03;;;21.56;44.58
49397;BME280;35615;41.410;2.194;2023-05-10T05:08:51;101606.38;;;21.35;44.73
49397;BME280;35615;41.410;2.194;2023-05-10T05:11:18;101609.16;;;21.51;44.62
49397;BME280;35615;41.410;2.194;2023-05-10T05:13:46;101610.69;;;21.26;44.81
49397;BME280;35615;41.410;2.194;2023-05-10T05:16:19;101599.25;;;21.21;44.65
49397;BME280;35615;41.410;2.194;2023-05-10T05:18:57;101603.41;;;20.97;45.15
49397;BME280;35615;41.410;2.194;2023-05-10T05:21:37;101603.50;;;21.06;44.71
49397;BME280;35615;41.410;2.194;2023-05-10T05:24:10;101605.88;;;20.82;44.58
49397;BME280;35615;41.410;2.194;2023-05-10T05:26:47;101609.66;;;21.08;44.54
49397;BME280;35615;41.410;2.194;2023-05-10T05:29:26;101612.97;;;20.92;44.28
49397;BME280;35615;41.410;2.194;2023-05-10T05:32:11;101602.63;;;21.07;43.33
49397;BME280;35615;41.410;2.194;2023-05-10T05:34:53;101606.16;;;21.08;43.30
49397;BME280;35615;41.410;2.194;2023-05-10T05:37:20;101608.59;;;20.93;44.01
49397;BME280;35615;41.410;2.194;2023-05-10T05:40:01;101608.69;;;20.99;43.79
49397;BME280;35615;41.410;2.194;2023-05-10T05:42:35;101610.41;;;20.97;44.23
49397;BME280;35615;41.410;2.194;2023-05-10T05:45:16;101613.09;;;21.04;43.63
49397;BME280;35615;41.410;2.194;2023-05-10T05:47:54;101607.63;;;20.80;43.60
49397;BME280;35615;41.410;2.194;2023-05-10T05:50:26;101613.59;;;20.65;44.22
49397;BME280;35615;41.410;2.194;2023-05-10T05:52:59;101613.81;;;20.85;43.65
49397;BME280;35615;41.410;2.194;2023-05-10T05:55:31;101617.25;;;20.82;43.17
49397;BME280;35615;41.410;2.194;2023-05-10T05:58:06;101617.38;;;20.95;43.30
49397;BME280;35615;41.410;2.194;2023-05-10T06:00:36;101623.66;;;21.07;43.09
49397;BME280;35615;41.410;2.194;2023-05-10T06:03:23;101621.03;;;21.10;42.39
49397;BME280;35615;41.410;2.194;2023-05-10T06:05:56;101628.16;;;21.21;42.54
49397;BME280;35615;41.410;2.194;2023-05-10T06:08:34;101617.53;;;21.10;42.30
49397;BME280;35615;41.410;2.194;2023-05-10T06:11:04;101621.16;;;21.23;42.35
49397;BME280;35615;41.410;2.194;2023-05-10T06:13:40;101620.25;;;21.17;42.01
49397;BME280;35615;41.410;2.194;2023-05-10T06:16:16;101612.28;;;21.10;42.78
49397;BME280;35615;41.410;2.194;2023-05-10T06:18:44;101621.81;;;21.00;42.45
49397;BME280;35615;41.410;2.194;2023-05-10T06:21:24;101616.88;;;21.32;42.62
49397;BME280;35615;41.410;2.194;2023-05-10T06:24:00;101616.00;;;21.35;41.80
49397;BME280;35615;41.410;2.194;2023-05-10T06:26:37;101603.75;;;21.32;42.23
49397;BME280;35615;41.410;2.194;2023-05-10T06:29:05;101610.75;;;21.30;42.19
49397;BME280;35615;41.410;2.194;2023-05-10T06:31:35;101611.44;;;21.15;41.98
49397;BME280;35615;41.410;2.194;2023-05-10T06:34:04;101606.06;;;20.99;41.49
49397;BME280;35615;41.410;2.194;2023-05-10T06:36:34;101603.63;;;21.25;41.98
49397;BME280;35615;41.410;2.194;2023-05-10T06:39:10;101597.59;;;21.29;42.09
49397;BME280;35615;41.410;2.194;2023-05-10T06:41:38;101593.31;;;21.48;41.44
49397;BME280;35615;41.410;2.194;2023-05-10T06:44:06;101596.88;;;21.56;41.33
49397;BME280;35615;41.410;2.194;2023-05-10T06:46:42;101600.47;;;21.65;41.19
49397;BME280;35615;41.410;2.194;2023-05-10T06:49:13;101604.88;;;21.72;41.75
49397;BME280;35615;41.410;2.194;2023-05-10T06:51:48;101604.91;;;21.77;40.92
49397;BME280;35615;41.410;2.194;2023-05-10T06:54:27;101605.81;;;21.81;40.66
49397;BME280;35615;41.410;2.194;2023-05-10T06:57:04;101611.94;;;21.80;40.74
49397;BME280;35615;41.410;2.194;2023-05-10T06:59:51;101612.88;;;21.86;40.11
49397;BME280;35615;41.410;2.194;2023-05-10T07:02:31;101627.72;;;21.77;39.68
49397;BME280;35615;41.410;2.194;2023-05-10T07:05:01;101633.91;;;21.88;39.60
49397;BME280;35615;41.410;2.194;2023-05-10T07:07:32;101638.31;;;21.92;39.96
49397;BME280;35615;41.410;2.194;2023-05-10T07:10:03;101640.88;;;21.80;39.43
49397;BME280;35615;41.410;2.194;2023-05-10T07:12:38;101638.28;;;21.87;39.20
49397;BME280;35615;41.410;2.194;2023-05-10T07:15:06;101633.09;;;21.99;39.31
49397;BME280;35615;41.410;2.194;2023-05-10T07:17:40;101643.63;;;22.02;39.28
49397;BME280;35615;41.410;2.194;2023-05-10T07:20:11;101633.09;;;21.98;39.71
49397;BME280;35615;41.410;2.194;2023-05-10T07:22:40;101631.44;;;22.09;39.25
49397;BME280;35615;41.410;2.194;2023-05-10T07:25:12;101632.31;;;22.10;39.09
49397;BME280;35615;41.410;2.194;2023-05-10T07:27:45;101632.41;;;22.34;38.91
49397;BME280;35615;41.410;2.194;2023-05-10T07:30:13;101635.91;;;22.36;38.54
49397;BME280;35615;41.410;2.194;2023-05-10T07:32:50;101637.63;;;22.17;38.43
49397;BME280;35615;41.410;2.194;2023-05-10T07:35:28;101638.50;;;22.21;38.79
49397;BME280;35615;41.410;2.194;2023-05-10T07:37:56;101635.94;;;22.39;38.87
49397;BME280;35615;41.410;2.194;2023-05-10T07:40:31;101630.69;;;22.42;38.40
49397;BME280;35615;41.410;2.194;2023-05-10T07:42:58;101629.84;;;22.54;38.34
49397;BME280;35615;41.410;2.194;2023-05-10T07:45:36;101639.47;;;22.40;38.10
49397;BME280;35615;41.410;2.194;2023-05-10T07:48:03;101639.53;;;22.67;39.11
49397;BME280;35615;41.410;2.194;2023-05-10T07:50:33;101633.41;;;22.82;38.56
49397;BME280;35615;41.410;2.194;2023-05-10T07:53:04;101635.22;;;22.92;37.98
49397;BME280;35615;41.410;2.194;2023-05-10T07:55:38;101628.19;;;23.03;38.03
49397;BME280;35615;41.410;2.194;2023-05-10T07:58:05;101629.97;;;23.12;38.29
49397;BME280;35615;41.410;2.194;2023-05-10T08:00:36;101630.88;;;23.17;38.40
49397;BME280;35615;41.410;2.194;2023-05-10T08:03:09;101628.22;;;23.26;37.86
49397;BME280;35615;41.410;2.194;2023-05-10T08:05:44;101623.81;;;23.39;38.10
49397;BME280;35615;41.410;2.194;2023-05-10T08:08:11;101627.34;;;23.42;38.24
49397;BME280;35615;41.410;2.194;2023-05-10T08:10:39;101626.44;;;23.48;37.99
49397;BME280;35615;41.410;2.194;2023-05-10T08:13:07;101629.97;;;23.48;38.32
49397;BME280;35615;41.410;2.194;2023-05-10T08:15:36;101629.97;;;23.55;38.00
49397;BME280;35615;41.410;2.194;2023-05-10T08:18:06;101631.75;;;23.42;38.15
49397;BME280;35615;41.410;2.194;2023-05-10T08:20:39;101630.00;;;23.39;37.89
49397;BME280;35615;41.410;2.194;2023-05-10T08:23:14;101632.59;;;23.53;37.34
49397;BME280;35615;41.410;2.194;2023-05-10T08:25:45;101636.13;;;23.64;37.66
49397;BME280;35615;41.410;2.194;2023-05-10T08:28:15;101630.84;;;23.73;37.67
49397;BME280;35615;41.410;2.194;2023-05-10T08:30:49;101632.56;;;23.91;38.03
49397;BME280;35615;41.410;2.194;2023-05-10T08:33:38;101630.75;;;24.04;37.20
49397;BME280;35615;41.410;2.194;2023-05-10T08:36:13;101629.84;;;24.19;35.91
49397;BME280;35615;41.410;2.194;2023-05-10T08:38:56;101632.44;;;24.22;35.55
49397;BME280;35615;41.410;2.194;2023-05-10T08:41:28;101621.84;;;24.37;35.69
49397;BME280;35615;41.410;2.194;2023-05-10T08:43:57;101627.75;;;24.83;35.40
49397;BME280;35615;41.410;2.194;2023-05-10T08:46:47;101624.81;;;25.28;34.45
49397;BME280;35615;41.410;2.194;2023-05-10T08:49:27;101624.59;;;25.47;33.82
49397;BME280;35615;41.410;2.194;2023-05-10T08:52:03;101620.97;;;25.58;33.39
49397;BME280;35615;41.410;2.194;2023-05-10T08:54:32;101626.03;;;25.82;34.58
49397;BME280;35615;41.410;2.194;2023-05-10T08:57:08;101627.34;;;26.23;34.19
49397;BME280;35615;41.410;2.194;2023-05-10T08:59:39;101624.38;;;26.49;33.78
49397;BME280;35615;41.410;2.194;2023-05-10T09:02:11;101620.59;;;26.67;34.38
49397;BME280;35615;41.410;2.194;2023-05-10T09:04:46;101620.03;;;27.05;34.40
49397;BME280;35615;41.410;2.194;2023-05-10T09:07:20;101632.25;;;27.15;34.21
49397;BME280;35615;41.410;2.194;2023-05-10T09:09:51;101623.91;;;27.36;34.58
49397;BME280;35615;41.410;2.194;2023-05-10T09:12:18;101627.34;;;27.43;34.78
49397;BME280;35615;41.410;2.194;2023-05-10T09:14:50;101628.41;;;27.33;36.21
49397;BME280;35615;41.410;2.194;2023-05-10T09:17:22;101633.16;;;27.66;36.95
49397;BME280;35615;41.410;2.194;2023-05-10T09:20:05;101633.88;;;27.74;37.71
49397;BME280;35615;41.410;2.194;2023-05-10T09:22:34;101636.47;;;27.28;39.12
49397;BME280;35615;41.410;2.194;2023-05-10T09:25:08;101642.53;;;26.78;40.67
49397;BME280;35615;41.410;2.194;2023-05-10T09:27:39;101646.44;;;27.12;40.13
49397;BME280;35615;41.410;2.194;2023-05-10T09:30:07;101652.34;;;26.70;41.63
49397;BME280;35615;41.410;2.194;2023-05-10T09:32:42;101639.56;;;26.98;40.70
49397;BME280;35615;41.410;2.194;2023-05-10T09:35:15;101650.19;;;27.53;40.04
49397;BME280;35615;41.410;2.194;2023-05-10T09:37:48;101650.03;;;27.10;40.59
49397;BME280;35615;41.410;2.194;2023-05-10T09:40:21;101650.59;;;27.29;40.13
49397;BME280;35615;41.410;2.194;2023-05-10T09:43:01;101644.53;;;27.20;40.26
49397;BME280;35615;41.410;2.194;2023-05-10T09:45:34;101644.25;;;27.39;40.39
49397;BME280;35615;41.410;2.194;2023-05-10T09:48:08;101630.91;;;26.86;41.08
49397;BME280;35615;41.410;2.194;2023-05-10T09:50:41;101647.03;;;26.73;41.75
49397;BME280;35615;41.410;2.194;2023-05-10T09:53:16;101647.59;;;26.28;42.92
49397;BME280;35615;41.410;2.194;2023-05-10T09:55:46;101643.28;;;26.86;42.00
49397;BME280;35615;41.410;2.194;2023-05-10T09:58:19;101635.22;;;26.92;42.11
49397;BME280;35615;41.410;2.194;2023-05-10T10:00:52;101638.72;;;26.96;42.15
49397;BME280;35615;41.410;2.194;2023-05-10T10:03:27;101644.38;;;27.31;41.15
49397;BME280;35615;41.410;2.194;2023-05-10T10:05:56;101636.28;;;27.39;41.08
49397;BME280;35615;41.410;2.194;2023-05-10T10:08:29;101649.66;;;27.31;41.30
49397;BME280;35615;41.410;2.194;2023-05-10T10:11:09;101648.78;;;27.32;41.12
49397;BME280;35615;41.410;2.194;2023-05-10T10:13:43;101649.44;;;26.88;42.02
49397;BME280;35615;41.410;2.194;2023-05-10T10:16:36;101643.75;;;27.68;40.91
49397;BME280;35615;41.410;2.194;2023-05-10T10:19:32;101645.69;;;27.57;41.47
49397;BME280;35615;41.410;2.194;2023-05-10T10:22:14;101662.81;;;27.37;41.54
49397;BME280;35615;41.410;2.194;2023-05-10T10:24:59;101656.69;;;27.86;40.87
49397;BME280;35615;41.410;2.194;2023-05-10T10:30:49;101659.38;;;26.74;41.58
49397;BME280;35615;41.410;2.194;2023-05-10T10:36:25;101652.06;;;27.46;40.17
49397;BME280;35615;41.410;2.194;2023-05-10T10:39:07;101658.69;;;27.73;39.46
49397;BME280;35615;41.410;2.194;2023-05-10T10:41:58;101656.19;;;27.12;39.84
49397;BME280;35615;41.410;2.194;2023-05-10T10:44:39;101640.63;;;27.43;39.30
49397;BME280;35615;41.410;2.194;2023-05-10T10:47:28;101644.84;;;28.02;38.72
49397;BME280;35615;41.410;2.194;2023-05-10T10:50:16;101647.91;;;27.83;38.75
49397;BME280;35615;41.410;2.194;2023-05-10T10:52:49;101651.22;;;27.94;38.39
49397;BME280;35615;41.410;2.194;2023-05-10T10:55:25;101653.38;;;27.73;38.48
49397;BME280;35615;41.410;2.194;2023-05-10T10:57:57;101651.06;;;27.54;38.97
49397;BME280;35615;41.410;2.194;2023-05-10T11:00:41;101651.09;;;28.00;38.30
49397;BME280;35615;41.410;2.194;2023-05-10T11:03:21;101648.91;;;27.75;38.86
49397;BME280;35615;41.410;2.194;2023-05-10T11:05:58;101646.31;;;28.17;37.61
49397;BME280;35615;41.410;2.194;2023-05-10T11:08:46;101651.78;;;27.65;38.04
49397;BME280;35615;41.410;2.194;2023-05-10T11:11:20;101646.28;;;27.74;38.42
49397;BME280;35615;41.410;2.194;2023-05-10T11:14:06;101643.25;;;27.44;38.82
49397;BME280;35615;41.410;2.194;2023-05-10T11:16:44;101655.94;;;26.67;39.68
49397;BME280;35615;41.410;2.194;2023-05-10T11:19:27;101648.28;;;27.09;39.29
49397;BME280;35615;41.410;2.194;2023-05-10T11:25:33;101648.56;;;27.44;38.61
49397;BME280;35615;41.410;2.194;2023-05-10T11:28:05;101650.25;;;26.93;39.65
49397;BME280;35615;41.410;2.194;2023-05-10T11:30:36;101644.94;;;26.27;41.11
49397;BME280;35615;41.410;2.194;2023-05-10T11:33:05;101650.94;;;25.63;42.37
49397;BME280;35615;41.410;2.194;2023-05-10T11:35:41;101642.88;;;25.76;41.95
49397;BME280;35615;41.410;2.194;2023-05-10T11:38:12;101647.59;;;25.42;42.46
49397;BME280;35615;41.410;2.194;2023-05-10T11:40:45;101647.72;;;25.29;42.35
49397;BME280;35615;41.410;2.194;2023-05-10T11:43:15;101626.28;;;25.61;42.18
49397;BME280;35615;41.410;2.194;2023-05-10T11:45:45;101635.19;;;25.47;42.58
49397;BME280;35615;41.410;2.194;2023-05-10T11:48:18;101654.59;;;26.32;41.22
49397;BME280;35615;41.410;2.194;2023-05-10T11:50:50;101649.28;;;25.53;42.78
49397;BME280;35615;41.410;2.194;2023-05-10T11:53:22;101652.69;;;25.64;42.12
49397;BME280;35615;41.410;2.194;2023-05-10T11:55:54;101649.16;;;25.63;41.75
49397;BME280;35615;41.410;2.194;2023-05-10T11:58:32;101650.50;;;26.07;41.51
49397;BME280;35615;41.410;2.194;2023-05-10T12:01:10;101638.44;;;25.80;41.75
49397;BME280;35615;41.410;2.194;2023-05-10T12:03:38;101643.16;;;26.30;41.28
49397;BME280;35615;41.410;2.194;2023-05-10T12:06:21;101638.50;;;25.75;41.95
49397;BME280;35615;41.410;2.194;2023-05-10T12:08:49;101648.38;;;26.35;40.67
49397;BME280;35615;41.410;2.194;2023-05-10T12:11:25;101644.16;;;26.20;40.71
49397;BME280;35615;41.410;2.194;2023-05-10T12:14:10;101635.94;;;25.63;42.15
49397;BME280;35615;41.410;2.194;2023-05-10T12:16:38;101643.03;;;25.58;41.77
49397;BME280;35615;41.410;2.194;2023-05-10T12:19:37;101633.69;;;25.16;42.66
49397;BME280;35615;41.410;2.194;2023-05-10T12:22:21;101638.09;;;26.11;41.42
49397;BME280;35615;41.410;2.194;2023-05-10T12:25:01;101640.91;;;25.97;41.04
49397;BME280;35615;41.410;2.194;2023-05-10T12:28:00;101640.97;;;25.89;41.27
49397;BME280;35615;41.410;2.194;2023-05-10T12:30:37;101638.16;;;26.03;41.01
49397;BME280;35615;41.410;2.194;2023-05-10T12:33:25;101648.94;;;26.60;39.80
49397;BME280;35615;41.410;2.194;2023-05-10T12:36:05;101645.03;;;26.87;39.43
49397;BME280;35615;41.410;2.194;2023-05-10T12:38:56;101638.56;;;26.45;39.04
49397;BME280;35615;41.410;2.194;2023-05-10T12:44:21;101644.22;;;26.83;38.76
49397;BME280;35615;41.410;2.194;2023-05-10T12:46:59;101636.22;;;26.86;38.75
49397;BME280;35615;41.410;2.194;2023-05-10T12:49:29;101635.41;;;26.80;39.24
49397;BME280;35615;41.410;2.194;2023-05-10T12:52:05;101646.28;;;26.63;39.04
49397;BME280;35615;41.410;2.194;2023-05-10T12:54:42;101634.88;;;26.56;39.01
49397;BME280;35615;41.410;2.194;2023-05-10T12:57:14;101629.47;;;25.92;39.95
49397;BME280;35615;41.410;2.194;2023-05-10T12:59:42;101627.72;;;25.91;40.25
49397;BME280;35615;41.410;2.194;2023-05-10T13:02:18;101631.69;;;26.27;39.92
49397;BME280;35615;41.410;2.194;2023-05-10T13:04:54;101632.75;;;26.81;38.53
49397;BME280;35615;41.410;2.194;2023-05-10T13:07:29;101633.75;;;26.05;39.89
49397;BME280;35615;41.410;2.194;2023-05-10T13:10:12;101630.56;;;26.48;38.77
49397;BME280;35615;41.410;2.194;2023-05-10T13:12:42;101627.91;;;26.49;39.25
49397;BME280;35615;41.410;2.194;2023-05-10T13:15:18;101626.22;;;26.44;39.11
49397;BME280;35615;41.410;2.194;2023-05-10T13:17:55;101625.06;;;26.63;38.87
49397;BME280;35615;41.410;2.194;2023-05-10T13:20:35;101630.41;;;26.60;38.64
49397;BME280;35615;41.410;2.194;2023-05-10T13:23:10;101632.47;;;26.35;39.03
49397;BME280;35615;41.410;2.194;2023-05-10T13:25:38;101632.56;;;26.30;38.86
49397;BME280;35615;41.410;2.194;2023-05-10T13:28:09;101627.91;;;26.48;38.58
49397;BME280;35615;41.410;2.194;2023-05-10T13:30:40;101634.25;;;26.38;38.75
49397;BME280;35615;41.410;2.194;2023-05-10T13:33:07;101632.59;;;26.27;38.80
49397;BME280;35615;41.410;2.194;2023-05-10T13:35:35;101630.84;;;26.25;38.10
49397;BME280;35615;41.410;2.194;2023-05-10T13:38:06;101623.81;;;26.22;38.59
49397;BME280;35615;41.410;2.194;2023-05-10T13:40:35;101618.16;;;25.77;38.23
49397;BME280;35615;41.410;2.194;2023-05-10T13:43:05;101628.94;;;26.36;38.06
49397;BME280;35615;41.410;2.194;2023-05-10T13:45:38;101632.03;;;26.69;37.32
49397;BME280;35615;41.410;2.194;2023-05-10T13:48:18;101636.63;;;25.85;37.79
49397;BME280;35615;41.410;2.194;2023-05-10T13:50:49;101626.34;;;25.48;38.47
49397;BME280;35615;41.410;2.194;2023-05-10T13:53:17;101611.59;;;25.25;39.94